createdAt,value
2023-03-17T00:01:54.230Z,-0.91
2023-03-17T00:04:24.657Z,-1.07
2023-03-17T00:06:52.676Z,-1.13
2023-03-17T00:09:20.263Z,-1.13
2023-03-17T00:11:47.683Z,-1.16
2023-03-17T00:14:14.553Z,-1.26
2023-03-17T00:16:43.674Z,-1.16
2023-03-17T00:19:18.258Z,-1.14
2023-03-17T00:21:47.001Z,-1.18
2023-03-17T00:24:15.166Z,-1.23
2023-03-17T00:26:42.900Z,-1.39
2023-03-17T00:29:09.846Z,-1.34
2023-03-17T00:31:38.007Z,-1.25
2023-03-17T00:34:06.088Z,-1.27
2023-03-17T00:36:33.680Z,-1.23
2023-03-17T00:39:00.609Z,-1.19
2023-03-17T00:41:27.711Z,-1.14
2023-03-17T00:43:54.315Z,-1.16
2023-03-17T00:46:36.155Z,-1.14
2023-03-17T00:49:21.084Z,-1.14
2023-03-17T00:51:49.952Z,-1.20
2023-03-17T00:54:18.044Z,-1.23
2023-03-17T00:56:45.621Z,-1.28
2023-03-17T00:59:21.161Z,-1.32
2023-03-17T01:01:48.168Z,-1.34
2023-03-17T01:04:15.634Z,-1.42
2023-03-17T01:06:43.798Z,-1.48
2023-03-17T01:09:14.774Z,-1.30
2023-03-17T01:11:42.694Z,-1.21
2023-03-17T01:14:11.332Z,-1.28
2023-03-17T01:16:38.787Z,-1.30
2023-03-17T01:19:05.860Z,-1.20
2023-03-17T01:21:33.104Z,-1.11
2023-03-17T01:24:00.339Z,-1.07
2023-03-17T01:26:26.880Z,-1.11
2023-03-17T01:28:54.483Z,-1.07
2023-03-17T01:31:20.942Z,-1.18
2023-03-17T01:33:47.442Z,-1.35
2023-03-17T01:36:14.401Z,-1.33
2023-03-17T01:38:41.808Z,-1.38
2023-03-17T01:41:08.212Z,-1.40
2023-03-17T01:43:34.776Z,-1.47
2023-03-17T01:46:21.815Z,-1.29
2023-03-17T01:49:15.672Z,-1.22
2023-03-17T01:51:54.861Z,-1.24
2023-03-17T01:54:27.021Z,-1.28
2023-03-17T01:56:57.764Z,-1.19
2023-03-17T01:59:31.542Z,-1.34
2023-03-17T02:02:04.141Z,-1.38
2023-03-17T02:04:31.636Z,-1.30
2023-03-17T02:06:58.996Z,-1.16
2023-03-17T02:09:27.884Z,-1.04
2023-03-17T02:11:56.161Z,-0.99
2023-03-17T02:14:23.650Z,-0.88
2023-03-17T02:16:50.569Z,-0.76
2023-03-17T02:19:17.641Z,-0.74
2023-03-17T02:21:47.616Z,-0.76
2023-03-17T02:24:32.498Z,-0.86
2023-03-17T02:27:14.590Z,-0.85
2023-03-17T02:29:42.449Z,-0.78
2023-03-17T02:32:09.969Z,-0.72
2023-03-17T02:34:37.264Z,-0.74
2023-03-17T02:37:04.923Z,-0.89
2023-03-17T02:39:32.059Z,-0.93
2023-03-17T02:41:58.930Z,-1.03
2023-03-17T02:44:26.497Z,-1.14
2023-03-17T02:46:53.559Z,-1.03
2023-03-17T02:49:20.639Z,-1.00
2023-03-17T02:51:48.717Z,-0.84
2023-03-17T02:54:15.335Z,-0.76
2023-03-17T02:56:41.920Z,-0.67
2023-03-17T02:59:09.073Z,-0.55
2023-03-17T03:01:35.969Z,-0.71
2023-03-17T03:04:03.944Z,-0.79
2023-03-17T03:06:32.030Z,-0.77
2023-03-17T03:08:58.926Z,-0.72
2023-03-17T03:11:25.564Z,-0.64
2023-03-17T03:13:52.532Z,-0.50
2023-03-17T03:16:18.987Z,-0.41
2023-03-17T03:18:45.681Z,-0.49
2023-03-17T03:21:12.654Z,-0.51
2023-03-17T03:23:39.138Z,-0.48
2023-03-17T03:26:05.743Z,-0.56
2023-03-17T03:28:32.562Z,-0.57
2023-03-17T03:30:59.000Z,-0.60
2023-03-17T03:33:25.554Z,-0.53
2023-03-17T03:35:52.334Z,-0.55
2023-03-17T03:38:19.168Z,-0.70
2023-03-17T03:40:45.789Z,-0.57
2023-03-17T03:43:22.749Z,-0.65
2023-03-17T03:45:50.717Z,-0.60
2023-03-17T03:48:17.708Z,-0.66
2023-03-17T03:50:44.404Z,-0.86
2023-03-17T03:53:10.814Z,-0.93
2023-03-17T03:55:37.842Z,-0.90
2023-03-17T03:58:04.349Z,-0.90
2023-03-17T04:00:30.935Z,-0.86
2023-03-17T04:02:59.497Z,-0.76
2023-03-17T04:05:26.080Z,-0.62
2023-03-17T04:07:52.897Z,-0.56
2023-03-17T04:10:19.660Z,-0.53
2023-03-17T04:12:46.713Z,-0.54
2023-03-17T04:15:17.864Z,-0.51
2023-03-17T04:17:44.824Z,-0.53
2023-03-17T04:20:13.216Z,-0.58
2023-03-17T04:22:41.684Z,-0.64
2023-03-17T04:25:10.900Z,-0.60
2023-03-17T04:27:37.927Z,-0.55
2023-03-17T04:30:05.385Z,-0.53
2023-03-17T04:32:32.422Z,-0.54
2023-03-17T04:34:58.994Z,-0.60
2023-03-17T04:37:25.703Z,-0.59
2023-03-17T04:39:52.800Z,-0.64
2023-03-17T04:42:19.252Z,-0.60
2023-03-17T04:44:46.073Z,-0.61
2023-03-17T04:47:12.961Z,-0.66
2023-03-17T04:49:39.514Z,-0.79
2023-03-17T04:52:06.748Z,-0.92
2023-03-17T04:54:33.665Z,-0.93
2023-03-17T04:57:00.697Z,-0.98
2023-03-17T04:59:27.311Z,-1.05
2023-03-17T05:01:54.163Z,-1.04
2023-03-17T05:04:31.076Z,-1.03
2023-03-17T05:06:58.268Z,-1.11
2023-03-17T05:09:27.020Z,-1.12
2023-03-17T05:11:53.464Z,-1.17
2023-03-17T05:14:20.437Z,-1.14
2023-03-17T05:16:48.687Z,-1.17
2023-03-17T05:19:16.335Z,-1.16
2023-03-17T05:21:42.828Z,-1.23
2023-03-17T05:24:10.169Z,-1.26
2023-03-17T05:26:36.604Z,-1.28
2023-03-17T05:29:03.352Z,-1.27
2023-03-17T05:31:31.470Z,-1.35
2023-03-17T05:33:58.053Z,-1.25
2023-03-17T05:36:24.963Z,-1.27
2023-03-17T05:38:52.671Z,-1.31
2023-03-17T05:41:19.427Z,-1.32
2023-03-17T05:43:46.095Z,-1.30
2023-03-17T05:46:13.025Z,-1.25
2023-03-17T05:48:39.509Z,-1.22
2023-03-17T05:51:06.588Z,-1.08
2023-03-17T05:53:33.372Z,-1.01
2023-03-17T05:55:59.775Z,-1.00
2023-03-17T05:58:26.769Z,-0.99
2023-03-17T06:00:53.593Z,-0.97
2023-03-17T06:03:21.323Z,-0.91
2023-03-17T06:05:48.316Z,-0.93
2023-03-17T06:08:15.360Z,-0.95
2023-03-17T06:10:43.004Z,-0.92
2023-03-17T06:13:10.071Z,-0.93
2023-03-17T06:15:36.957Z,-0.81
2023-03-17T06:18:05.172Z,-0.84
2023-03-17T06:20:33.599Z,-0.84
2023-03-17T06:23:04.962Z,-0.98
2023-03-17T06:25:32.629Z,-0.95
2023-03-17T06:28:02.910Z,-0.95
2023-03-17T06:30:31.180Z,-0.93
2023-03-17T06:32:57.697Z,-0.84
2023-03-17T06:35:25.155Z,-0.67
2023-03-17T06:37:52.410Z,-0.42
2023-03-17T06:40:18.978Z,-0.20
2023-03-17T06:42:45.998Z,0.33
2023-03-17T06:45:12.933Z,1.16
2023-03-17T06:47:39.822Z,2.55
2023-03-17T06:50:10.014Z,4.01
2023-03-17T06:52:38.204Z,5.52
2023-03-17T06:55:06.222Z,5.92
2023-03-17T06:57:33.191Z,7.08
2023-03-17T06:59:59.727Z,8.13
2023-03-17T07:02:27.118Z,8.27
2023-03-17T07:04:53.733Z,8.27
2023-03-17T07:07:21.018Z,8.00
2023-03-17T07:09:48.298Z,7.32
2023-03-17T07:12:14.764Z,7.03
2023-03-17T07:14:41.636Z,6.68
2023-03-17T07:17:12.776Z,6.94
2023-03-17T07:19:39.828Z,7.04
2023-03-17T07:22:07.061Z,7.72
2023-03-17T07:24:34.454Z,7.84
2023-03-17T07:27:00.915Z,8.03
2023-03-17T07:29:29.115Z,7.82
2023-03-17T07:31:56.043Z,8.69
2023-03-17T07:34:23.678Z,8.93
2023-03-17T07:36:50.554Z,9.70
2023-03-17T07:39:17.312Z,10.37
2023-03-17T07:41:44.231Z,11.09
2023-03-17T07:44:11.708Z,11.36
2023-03-17T07:46:39.160Z,11.12
2023-03-17T07:49:06.224Z,12.11
2023-03-17T07:51:32.954Z,12.37
2023-03-17T07:54:04.220Z,12.64
2023-03-17T07:56:32.104Z,12.98
2023-03-17T07:58:59.214Z,13.35
2023-03-17T08:01:27.119Z,13.06
2023-03-17T08:03:54.379Z,13.16
2023-03-17T08:06:21.618Z,12.02
2023-03-17T08:08:48.774Z,12.75
2023-03-17T08:11:16.779Z,11.93
2023-03-17T08:13:43.328Z,11.21
2023-03-17T08:16:11.334Z,9.58
2023-03-17T08:18:38.065Z,10.07
2023-03-17T08:21:05.181Z,11.34
2023-03-17T08:23:32.761Z,10.78
2023-03-17T08:26:02.181Z,9.40
2023-03-17T08:28:29.591Z,11.47
2023-03-17T08:31:17.470Z,11.93
2023-03-17T08:33:48.429Z,10.57
2023-03-17T08:36:16.632Z,12.46
2023-03-17T08:38:45.206Z,13.29
2023-03-17T08:41:15.573Z,13.36
2023-03-17T08:43:44.012Z,11.34
2023-03-17T08:46:18.035Z,8.40
2023-03-17T08:48:46.714Z,8.85
2023-03-17T08:51:13.653Z,9.43
2023-03-17T08:53:40.925Z,10.05
2023-03-17T08:56:08.389Z,8.54
2023-03-17T08:58:37.591Z,8.19
2023-03-17T09:01:05.251Z,8.65
2023-03-17T09:03:33.648Z,8.82
2023-03-17T09:06:00.368Z,9.52
2023-03-17T09:08:28.289Z,9.88
2023-03-17T09:10:54.703Z,8.26
2023-03-17T09:13:21.948Z,8.75
2023-03-17T09:15:51.745Z,9.84
2023-03-17T09:18:21.949Z,10.66
2023-03-17T09:20:48.707Z,12.82
2023-03-17T09:23:15.894Z,12.96
2023-03-17T09:25:43.256Z,12.46
2023-03-17T09:28:12.525Z,12.00
2023-03-17T09:30:42.864Z,10.68
2023-03-17T09:33:10.763Z,9.55
2023-03-17T09:35:38.372Z,9.53
2023-03-17T09:38:05.405Z,10.43
2023-03-17T09:41:00.366Z,10.62
2023-03-17T09:43:43.369Z,10.19
2023-03-17T09:46:37.840Z,10.23
2023-03-17T09:49:14.172Z,10.94
2023-03-17T09:51:43.247Z,11.42
2023-03-17T09:54:27.964Z,11.61
2023-03-17T09:57:12.316Z,11.58
2023-03-17T09:59:42.169Z,13.77
2023-03-17T10:02:28.570Z,14.09
2023-03-17T10:04:56.380Z,15.46
2023-03-17T10:07:36.640Z,12.70
2023-03-17T10:10:09.241Z,12.27
2023-03-17T10:12:52.154Z,14.65
2023-03-17T10:15:28.163Z,14.63
2023-03-17T10:17:55.032Z,15.61
2023-03-17T10:20:27.344Z,15.58
2023-03-17T10:23:02.277Z,15.34
2023-03-17T10:25:33.005Z,14.63
2023-03-17T10:28:02.638Z,12.44
2023-03-17T10:30:33.563Z,11.55
2023-03-17T10:33:03.732Z,11.31
2023-03-17T10:35:35.942Z,10.61
2023-03-17T10:38:23.846Z,12.13
2023-03-17T10:40:59.524Z,13.56
2023-03-17T10:43:36.907Z,14.23
2023-03-17T10:46:05.907Z,12.49
2023-03-17T10:48:37.701Z,11.14
2023-03-17T10:51:11.606Z,11.26
2023-03-17T10:53:43.619Z,13.19
2023-03-17T10:56:25.000Z,12.45
2023-03-17T10:58:53.879Z,12.03
2023-03-17T11:01:38.514Z,11.84
2023-03-17T11:04:29.915Z,12.52
2023-03-17T11:06:58.601Z,11.23
2023-03-17T11:09:29.170Z,12.49
2023-03-17T11:12:09.074Z,12.54
2023-03-17T11:14:35.722Z,12.72
2023-03-17T11:17:16.342Z,13.17
2023-03-17T11:19:56.132Z,11.99
2023-03-17T11:22:40.177Z,11.35
2023-03-17T11:25:19.720Z,12.02
2023-03-17T11:28:16.155Z,14.06
2023-03-17T11:30:59.223Z,13.21
2023-03-17T11:33:47.069Z,13.66
2023-03-17T11:36:43.559Z,12.68
2023-03-17T11:39:22.860Z,12.61
2023-03-17T11:42:06.304Z,12.50
2023-03-17T11:44:51.694Z,13.09
2023-03-17T11:47:32.209Z,12.78
2023-03-17T11:50:23.685Z,14.97
2023-03-17T11:52:56.716Z,13.42
2023-03-17T11:55:28.847Z,14.70
2023-03-17T11:58:05.223Z,15.70
2023-03-17T12:00:35.104Z,15.42
2023-03-17T12:03:04.717Z,14.44
2023-03-17T12:05:32.551Z,15.28
2023-03-17T12:08:13.289Z,16.58
2023-03-17T12:10:45.295Z,15.16
2023-03-17T12:13:43.933Z,14.03
2023-03-17T12:16:21.276Z,13.30
2023-03-17T12:19:09.999Z,15.81
2023-03-17T12:21:47.518Z,16.44
2023-03-17T12:25:11.229Z,16.52
2023-03-17T12:27:54.256Z,16.35
2023-03-17T12:30:28.451Z,15.15
2023-03-17T12:33:14.890Z,14.91
2023-03-17T12:35:47.580Z,13.46
2023-03-17T12:38:30.599Z,14.44
2023-03-17T12:41:15.741Z,15.17
2023-03-17T12:43:57.958Z,14.81
2023-03-17T12:46:34.344Z,14.92
2023-03-17T12:49:38.545Z,14.80
2023-03-17T12:52:30.200Z,15.18
2023-03-17T12:55:01.294Z,15.23
2023-03-17T12:57:32.326Z,15.46
2023-03-17T13:00:05.617Z,15.74
2023-03-17T13:02:38.752Z,15.30
2023-03-17T13:05:09.064Z,15.68
2023-03-17T13:07:56.861Z,16.01
2023-03-17T13:10:39.879Z,15.87
2023-03-17T13:13:49.516Z,15.93
2023-03-17T13:16:33.868Z,15.22
2023-03-17T13:19:31.404Z,15.18
2023-03-17T13:22:04.322Z,14.93
2023-03-17T13:24:52.216Z,15.34
2023-03-17T13:27:31.069Z,15.74
2023-03-17T13:29:58.384Z,15.94
2023-03-17T13:32:24.777Z,15.37
2023-03-17T13:34:53.867Z,15.51
2023-03-17T13:37:42.500Z,15.71
2023-03-17T13:40:21.402Z,15.97
2023-03-17T13:43:00.383Z,15.61
2023-03-17T13:45:39.356Z,15.92
2023-03-17T13:48:24.844Z,16.14
2023-03-17T13:51:08.795Z,16.18
2023-03-17T13:53:40.537Z,16.34
2023-03-17T13:56:36.099Z,16.49
2023-03-17T13:59:02.891Z,16.49
2023-03-17T14:01:43.876Z,17.11
2023-03-17T14:04:27.260Z,16.83
2023-03-17T14:06:58.248Z,15.90
2023-03-17T14:09:34.446Z,15.26
2023-03-17T14:12:15.930Z,16.07
2023-03-17T14:14:51.381Z,16.66
2023-03-17T14:17:28.817Z,16.57
2023-03-17T14:20:08.655Z,16.61
2023-03-17T14:22:45.601Z,16.45
2023-03-17T14:25:25.108Z,16.75
2023-03-17T14:27:54.115Z,16.54
2023-03-17T14:30:27.328Z,16.06
2023-03-17T14:33:15.139Z,16.44
2023-03-17T14:35:43.434Z,16.64
2023-03-17T14:38:31.171Z,16.33
2023-03-17T14:41:03.225Z,16.75
2023-03-17T14:43:30.333Z,16.46
2023-03-17T14:46:12.862Z,16.42
2023-03-17T14:48:42.808Z,16.36
2023-03-17T14:51:33.855Z,16.52
2023-03-17T14:54:01.844Z,17.17
2023-03-17T14:56:36.944Z,17.22
2023-03-17T14:59:29.750Z,16.72
2023-03-17T15:02:02.166Z,16.67
2023-03-17T15:04:31.511Z,16.57
2023-03-17T15:07:04.083Z,15.99
2023-03-17T15:09:33.472Z,16.17
2023-03-17T15:12:06.985Z,15.89
2023-03-17T15:14:40.105Z,15.71
2023-03-17T15:17:16.994Z,15.70
2023-03-17T15:19:46.479Z,15.63
2023-03-17T15:22:43.868Z,15.56
2023-03-17T15:25:34.484Z,15.42
2023-03-17T15:28:01.170Z,15.45
2023-03-17T15:30:37.446Z,15.18
2023-03-17T15:33:23.713Z,15.29
2023-03-17T15:35:50.529Z,15.14
2023-03-17T15:38:17.300Z,15.09
2023-03-17T15:40:44.140Z,14.99
2023-03-17T15:43:15.352Z,15.12
2023-03-17T15:45:43.811Z,15.32
2023-03-17T15:48:27.128Z,15.26
2023-03-17T15:50:55.429Z,15.15
2023-03-17T15:53:22.229Z,15.21
2023-03-17T15:55:48.980Z,15.25
2023-03-17T15:58:15.602Z,15.17
2023-03-17T16:00:42.709Z,15.04
2023-03-17T16:03:21.234Z,15.10
2023-03-17T16:05:47.864Z,14.92
2023-03-17T16:08:15.950Z,14.74
2023-03-17T16:10:43.059Z,14.44
2023-03-17T16:13:09.603Z,14.06
2023-03-17T16:15:42.018Z,13.81
2023-03-17T16:18:19.869Z,13.59
2023-03-17T16:20:49.254Z,13.44
2023-03-17T16:23:23.088Z,13.28
2023-03-17T16:25:50.176Z,12.83
2023-03-17T16:28:23.435Z,12.52
2023-03-17T16:30:51.449Z,12.19
2023-03-17T16:33:31.515Z,12.05
2023-03-17T16:36:00.074Z,12.10
2023-03-17T16:38:29.091Z,11.92
2023-03-17T16:40:59.923Z,11.73
2023-03-17T16:43:32.091Z,11.71
2023-03-17T16:46:01.537Z,11.74
2023-03-17T16:48:28.374Z,11.74
2023-03-17T16:50:55.698Z,11.78
2023-03-17T16:53:23.481Z,11.51
2023-03-17T16:55:52.022Z,11.07
2023-03-17T16:58:33.199Z,11.10
2023-03-17T17:01:02.668Z,10.93
2023-03-17T17:03:31.055Z,10.68
2023-03-17T17:05:57.811Z,10.48
2023-03-17T17:08:24.382Z,10.38
2023-03-17T17:10:51.661Z,10.19
2023-03-17T17:13:18.627Z,9.98
2023-03-17T17:15:45.432Z,10.00
2023-03-17T17:18:16.310Z,9.81
2023-03-17T17:20:43.768Z,9.75
2023-03-17T17:23:13.157Z,9.70
2023-03-17T17:25:39.871Z,9.58
2023-03-17T17:28:06.790Z,9.58
2023-03-17T17:30:34.005Z,9.49
2023-03-17T17:33:02.008Z,9.42
2023-03-17T17:35:32.808Z,9.30
2023-03-17T17:38:00.570Z,9.14
2023-03-17T17:40:27.385Z,9.00
2023-03-17T17:42:55.540Z,8.81
2023-03-17T17:45:22.034Z,8.71
2023-03-17T17:47:48.865Z,8.63
2023-03-17T17:50:28.208Z,8.54
2023-03-17T17:52:55.062Z,8.45
2023-03-17T17:55:21.526Z,8.30
2023-03-17T17:57:49.895Z,8.18
2023-03-17T18:00:17.901Z,8.06
2023-03-17T18:02:44.743Z,7.75
2023-03-17T18:05:15.747Z,7.60
2023-03-17T18:07:42.193Z,7.51
2023-03-17T18:10:16.912Z,7.43
2023-03-17T18:12:43.394Z,7.36
2023-03-17T18:15:10.187Z,7.32
2023-03-17T18:17:37.216Z,7.21
2023-03-17T18:20:03.843Z,7.03
2023-03-17T18:22:30.252Z,7.09
2023-03-17T18:24:57.137Z,7.01
2023-03-17T18:27:23.581Z,6.88
2023-03-17T18:29:50.296Z,6.78
2023-03-17T18:32:16.811Z,6.71
2023-03-17T18:34:46.204Z,6.68
2023-03-17T18:37:15.259Z,6.59
2023-03-17T18:39:42.975Z,6.55
2023-03-17T18:42:09.744Z,6.57
2023-03-17T18:44:37.053Z,6.54
2023-03-17T18:47:05.471Z,6.47
2023-03-17T18:49:31.946Z,6.48
2023-03-17T18:51:59.531Z,6.42
2023-03-17T18:54:28.185Z,6.35
2023-03-17T18:56:55.279Z,6.42
2023-03-17T18:59:21.807Z,6.41
2023-03-17T19:01:48.666Z,6.36
2023-03-17T19:04:15.584Z,6.30
2023-03-17T19:06:42.712Z,6.24
2023-03-17T19:09:10.933Z,6.18
2023-03-17T19:11:39.207Z,6.12
2023-03-17T19:14:07.172Z,6.08
2023-03-17T19:16:35.120Z,6.02
2023-03-17T19:19:02.629Z,6.02
2023-03-17T19:21:29.067Z,6.10
2023-03-17T19:24:00.119Z,6.01
2023-03-17T19:26:27.679Z,6.03
2023-03-17T19:28:56.249Z,5.95
2023-03-17T19:31:25.178Z,5.82
2023-03-17T19:33:51.946Z,5.81
2023-03-17T19:36:19.224Z,5.68
2023-03-17T19:38:46.127Z,5.63
2023-03-17T19:41:13.476Z,5.53
2023-03-17T19:43:41.606Z,5.43
2023-03-17T19:46:09.673Z,5.33
2023-03-17T19:48:37.300Z,5.32
2023-03-17T19:51:04.519Z,5.28
2023-03-17T19:53:31.637Z,5.24
2023-03-17T19:55:58.025Z,5.24
2023-03-17T19:58:24.538Z,5.30
2023-03-17T20:00:51.792Z,5.24
2023-03-17T20:03:18.396Z,5.17
2023-03-17T20:05:46.402Z,5.12
2023-03-17T20:08:14.210Z,5.14
2023-03-17T20:10:40.585Z,5.12
2023-03-17T20:13:07.083Z,5.07
2023-03-17T20:18:19.174Z,5.06
2023-03-17T20:20:50.954Z,5.01
2023-03-17T20:23:18.031Z,5.03
2023-03-17T20:25:44.818Z,4.93
2023-03-17T20:28:12.901Z,4.88
2023-03-17T20:30:39.834Z,4.86
2023-03-17T20:33:08.172Z,4.85
2023-03-17T20:35:35.180Z,4.94
2023-03-17T20:38:02.017Z,5.01
2023-03-17T20:40:28.667Z,5.03
2023-03-17T20:42:55.664Z,4.98
2023-03-17T20:45:22.093Z,4.82
2023-03-17T20:47:49.156Z,4.76
2023-03-17T20:50:16.762Z,4.71
2023-03-17T20:52:43.244Z,4.64
2023-03-17T20:55:13.892Z,4.56
2023-03-17T20:57:42.478Z,4.47
2023-03-17T21:00:17.958Z,4.48
2023-03-17T21:02:48.368Z,4.48
2023-03-17T21:05:17.936Z,4.42
2023-03-17T21:07:44.684Z,4.38
2023-03-17T21:10:12.139Z,4.34
2023-03-17T21:12:38.863Z,4.30
2023-03-17T21:15:06.376Z,4.20
2023-03-17T21:17:33.247Z,4.19
2023-03-17T21:19:59.919Z,4.14
2023-03-17T21:22:26.782Z,4.03
2023-03-17T21:24:53.648Z,4.00
2023-03-17T21:27:20.070Z,3.95
2023-03-17T21:29:48.005Z,3.99
2023-03-17T21:32:14.707Z,3.92
2023-03-17T21:34:41.513Z,3.85
2023-03-17T21:37:07.982Z,3.71
2023-03-17T21:39:36.520Z,3.55
2023-03-17T21:42:03.755Z,3.54
2023-03-17T21:44:32.284Z,3.51
2023-03-17T21:47:02.886Z,3.48
2023-03-17T21:49:29.421Z,3.45
2023-03-17T21:51:55.922Z,3.45
2023-03-17T21:54:22.915Z,3.37
2023-03-17T21:56:49.829Z,3.36
2023-03-17T21:59:18.432Z,3.31
2023-03-17T22:01:45.192Z,3.39
2023-03-17T22:04:12.559Z,3.34
2023-03-17T22:06:40.101Z,3.27
2023-03-17T22:09:07.050Z,3.21
2023-03-17T22:11:33.439Z,3.21
2023-03-17T22:13:59.874Z,3.17
2023-03-17T22:16:26.833Z,3.12
2023-03-17T22:18:53.338Z,3.08
2023-03-17T22:21:21.400Z,3.04
2023-03-17T22:23:48.532Z,3.05
2023-03-17T22:26:20.525Z,3.08
2023-03-17T22:28:49.730Z,2.99
2023-03-17T22:31:22.158Z,2.90
2023-03-17T22:33:50.933Z,2.85
2023-03-17T22:36:17.860Z,2.85
2023-03-17T22:38:45.905Z,2.87
2023-03-17T22:41:16.924Z,2.85
2023-03-17T22:43:43.565Z,2.88
2023-03-17T22:46:11.011Z,2.85
2023-03-17T22:48:38.174Z,2.79
2023-03-17T22:51:08.807Z,2.74
2023-03-17T22:53:36.534Z,2.74
2023-03-17T22:56:04.358Z,2.70
2023-03-17T22:58:31.319Z,2.69
2023-03-17T23:00:57.820Z,2.65
2023-03-17T23:03:26.589Z,2.60
2023-03-17T23:05:57.151Z,2.54
2023-03-17T23:08:25.075Z,2.53
2023-03-17T23:10:52.274Z,2.47
2023-03-17T23:13:19.964Z,2.46
2023-03-17T23:15:47.432Z,2.41
2023-03-17T23:18:14.028Z,2.42
2023-03-17T23:20:40.757Z,2.40
2023-03-17T23:23:08.365Z,2.38
2023-03-17T23:25:36.655Z,2.41
2023-03-17T23:28:03.852Z,2.36
2023-03-17T23:30:31.582Z,2.25
2023-03-17T23:32:58.857Z,2.21
2023-03-17T23:35:25.478Z,2.18
2023-03-17T23:37:51.966Z,2.14
2023-03-17T23:40:18.931Z,2.17
2023-03-17T23:42:48.755Z,2.17
2023-03-17T23:45:18.971Z,2.12
2023-03-17T23:47:47.095Z,2.09
2023-03-17T23:50:14.736Z,2.08
2023-03-17T23:52:42.871Z,2.03
2023-03-17T23:55:11.760Z,2.00
2023-03-17T23:57:39.131Z,2.00
